<?xml version="1.0" encoding="UTF-8" standalone="no" ?>
<gpx xmlns="http://www.topografix.com/GPX/1/1" xmlns:xsi="http://www.w3.org/2001/XMLSchema-instance" xsi:schemaLocation="http://www.topografix.com/GPX/1/1 http://www.topografix.com/GPX/1/1/gpx.xsd" version="1.1" creator="VisuGPX - https://www.visugpx.com">
  <metadata>
    <name>GTR_2022 J4</name>
  </metadata>
  <trk>
    <name><![CDATA[GTR_2022]]></name>
    <trkseg>
      <trkpt lat="45.83781" lon="4.58599">
        <ele>277</ele>
        <time>2021-11-19T17:34:46Z</time>
      </trkpt>
      <trkpt lat="45.83778" lon="4.58696">
        <ele>281</ele>
        <time>2021-11-19T17:35:02Z</time>
      </trkpt>
      <trkpt lat="45.83778" lon="4.5876">
        <ele>282</ele>
        <time>2021-11-19T17:35:12Z</time>
      </trkpt>
      <trkpt lat="45.83781" lon="4.58819">
        <ele>283</ele>
        <time>2021-11-19T17:35:22Z</time>
      </trkpt>
      <trkpt lat="45.8374" lon="4.58821">
        <ele>285</ele>
        <time>2021-11-19T17:35:31Z</time>
      </trkpt>
      <trkpt lat="45.8372" lon="4.58825">
        <ele>287</ele>
        <time>2021-11-19T17:35:36Z</time>
      </trkpt>
      <trkpt lat="45.83698" lon="4.58824">
        <ele>288</ele>
        <time>2021-11-19T17:35:41Z</time>
      </trkpt>
      <trkpt lat="45.8367" lon="4.58814">
        <ele>289</ele>
        <time>2021-11-19T17:35:48Z</time>
      </trkpt>
      <trkpt lat="45.83598" lon="4.58818">
        <ele>292</ele>
        <time>2021-11-19T17:36:05Z</time>
      </trkpt>
      <trkpt lat="45.83562" lon="4.58808">
        <ele>294</ele>
        <time>2021-11-19T17:36:13Z</time>
      </trkpt>
      <trkpt lat="45.8353" lon="4.58805">
        <ele>296</ele>
        <time>2021-11-19T17:36:21Z</time>
      </trkpt>
      <trkpt lat="45.83497" lon="4.58798">
        <ele>297</ele>
        <time>2021-11-19T17:36:29Z</time>
      </trkpt>
      <trkpt lat="45.83495" lon="4.58816">
        <ele>298</ele>
        <time>2021-11-19T17:36:32Z</time>
      </trkpt>
      <trkpt lat="45.83515" lon="4.59002">
        <ele>298</ele>
        <time>2021-11-19T17:37:02Z</time>
      </trkpt>
      <trkpt lat="45.83439" lon="4.59167">
        <ele>291</ele>
        <time>2021-11-19T17:37:34Z</time>
      </trkpt>
      <trkpt lat="45.83307" lon="4.59433">
        <ele>292</ele>
        <time>2021-11-19T17:38:28Z</time>
      </trkpt>
      <trkpt lat="45.8329" lon="4.59473">
        <ele>292</ele>
        <time>2021-11-19T17:38:35Z</time>
      </trkpt>
      <trkpt lat="45.83236" lon="4.59509">
        <ele>292</ele>
        <time>2021-11-19T17:38:49Z</time>
      </trkpt>
      <trkpt lat="45.83137" lon="4.59538">
        <ele>282</ele>
        <time>2021-11-19T17:39:13Z</time>
      </trkpt>
      <trkpt lat="45.82976" lon="4.59528">
        <ele>267</ele>
        <time>2021-11-19T17:39:50Z</time>
      </trkpt>
      <trkpt lat="45.82951" lon="4.5954">
        <ele>267</ele>
        <time>2021-11-19T17:39:56Z</time>
      </trkpt>
      <trkpt lat="45.82933" lon="4.59557">
        <ele>268</ele>
        <time>2021-11-19T17:40:01Z</time>
      </trkpt>
      <trkpt lat="45.8292" lon="4.59471">
        <ele>269</ele>
        <time>2021-11-19T17:40:16Z</time>
      </trkpt>
      <trkpt lat="45.82903" lon="4.59188">
        <ele>292</ele>
        <time>2021-11-19T17:41:02Z</time>
      </trkpt>
      <trkpt lat="45.8287" lon="4.58961">
        <ele>298</ele>
        <time>2021-11-19T17:41:40Z</time>
      </trkpt>
      <trkpt lat="45.82859" lon="4.5875">
        <ele>298</ele>
        <time>2021-11-19T17:42:14Z</time>
      </trkpt>
      <trkpt lat="45.82836" lon="4.58407">
        <ele>302</ele>
        <time>2021-11-19T17:43:10Z</time>
      </trkpt>
      <trkpt lat="45.82792" lon="4.58362">
        <ele>300</ele>
        <time>2021-11-19T17:43:23Z</time>
      </trkpt>
      <trkpt lat="45.82747" lon="4.58311">
        <ele>299</ele>
        <time>2021-11-19T17:43:36Z</time>
      </trkpt>
      <trkpt lat="45.82666" lon="4.58025">
        <ele>308</ele>
        <time>2021-11-19T17:44:27Z</time>
      </trkpt>
      <trkpt lat="45.82664" lon="4.57957">
        <ele>310</ele>
        <time>2021-11-19T17:44:38Z</time>
      </trkpt>
      <trkpt lat="45.82668" lon="4.57807">
        <ele>314</ele>
        <time>2021-11-19T17:45:02Z</time>
      </trkpt>
      <trkpt lat="45.82676" lon="4.57722">
        <ele>314</ele>
        <time>2021-11-19T17:45:16Z</time>
      </trkpt>
      <trkpt lat="45.82684" lon="4.57673">
        <ele>315</ele>
        <time>2021-11-19T17:45:24Z</time>
      </trkpt>
      <trkpt lat="45.82689" lon="4.57582">
        <ele>317</ele>
        <time>2021-11-19T17:45:39Z</time>
      </trkpt>
      <trkpt lat="45.82687" lon="4.57516">
        <ele>320</ele>
        <time>2021-11-19T17:45:50Z</time>
      </trkpt>
      <trkpt lat="45.8269" lon="4.5741">
        <ele>326</ele>
        <time>2021-11-19T17:46:07Z</time>
      </trkpt>
      <trkpt lat="45.82686" lon="4.57273">
        <ele>338</ele>
        <time>2021-11-19T17:46:29Z</time>
      </trkpt>
      <trkpt lat="45.82656" lon="4.57141">
        <ele>347</ele>
        <time>2021-11-19T17:46:52Z</time>
      </trkpt>
      <trkpt lat="45.82651" lon="4.57091">
        <ele>348</ele>
        <time>2021-11-19T17:47:00Z</time>
      </trkpt>
      <trkpt lat="45.82642" lon="4.56936">
        <ele>354</ele>
        <time>2021-11-19T17:47:25Z</time>
      </trkpt>
      <trkpt lat="45.82654" lon="4.56814">
        <ele>364</ele>
        <time>2021-11-19T17:47:46Z</time>
      </trkpt>
      <trkpt lat="45.8267" lon="4.5674">
        <ele>371</ele>
        <time>2021-11-19T17:47:58Z</time>
      </trkpt>
      <trkpt lat="45.8269" lon="4.56697">
        <ele>377</ele>
        <time>2021-11-19T17:48:07Z</time>
      </trkpt>
      <trkpt lat="45.82722" lon="4.56659">
        <ele>385</ele>
        <time>2021-11-19T17:48:16Z</time>
      </trkpt>
      <trkpt lat="45.82741" lon="4.56643">
        <ele>390</ele>
        <time>2021-11-19T17:48:21Z</time>
      </trkpt>
      <trkpt lat="45.82784" lon="4.56643">
        <ele>397</ele>
        <time>2021-11-19T17:48:31Z</time>
      </trkpt>
      <trkpt lat="45.82815" lon="4.56651">
        <ele>402</ele>
        <time>2021-11-19T17:48:39Z</time>
      </trkpt>
      <trkpt lat="45.82882" lon="4.56663">
        <ele>410</ele>
        <time>2021-11-19T17:48:55Z</time>
      </trkpt>
      <trkpt lat="45.82931" lon="4.56664">
        <ele>416</ele>
        <time>2021-11-19T17:49:06Z</time>
      </trkpt>
      <trkpt lat="45.82987" lon="4.5665">
        <ele>424</ele>
        <time>2021-11-19T17:49:19Z</time>
      </trkpt>
      <trkpt lat="45.83044" lon="4.56606">
        <ele>434</ele>
        <time>2021-11-19T17:49:34Z</time>
      </trkpt>
      <trkpt lat="45.83061" lon="4.56584">
        <ele>438</ele>
        <time>2021-11-19T17:49:40Z</time>
      </trkpt>
      <trkpt lat="45.83095" lon="4.56504">
        <ele>447</ele>
        <time>2021-11-19T17:49:55Z</time>
      </trkpt>
      <trkpt lat="45.83104" lon="4.5643">
        <ele>448</ele>
        <time>2021-11-19T17:50:07Z</time>
      </trkpt>
      <trkpt lat="45.83103" lon="4.56362">
        <ele>453</ele>
        <time>2021-11-19T17:50:18Z</time>
      </trkpt>
      <trkpt lat="45.83111" lon="4.56329">
        <ele>455</ele>
        <time>2021-11-19T17:50:24Z</time>
      </trkpt>
      <trkpt lat="45.83133" lon="4.56287">
        <ele>459</ele>
        <time>2021-11-19T17:50:33Z</time>
      </trkpt>
      <trkpt lat="45.8317" lon="4.56241">
        <ele>463</ele>
        <time>2021-11-19T17:50:44Z</time>
      </trkpt>
      <trkpt lat="45.83189" lon="4.56226">
        <ele>462</ele>
        <time>2021-11-19T17:50:49Z</time>
      </trkpt>
      <trkpt lat="45.83215" lon="4.56194">
        <ele>462</ele>
        <time>2021-11-19T17:50:57Z</time>
      </trkpt>
      <trkpt lat="45.83256" lon="4.56121">
        <ele>459</ele>
        <time>2021-11-19T17:51:12Z</time>
      </trkpt>
      <trkpt lat="45.83259" lon="4.56096">
        <ele>459</ele>
        <time>2021-11-19T17:51:16Z</time>
      </trkpt>
      <trkpt lat="45.83255" lon="4.56067">
        <ele>459</ele>
        <time>2021-11-19T17:51:21Z</time>
      </trkpt>
      <trkpt lat="45.83226" lon="4.55979">
        <ele>463</ele>
        <time>2021-11-19T17:51:37Z</time>
      </trkpt>
      <trkpt lat="45.83202" lon="4.55873">
        <ele>457</ele>
        <time>2021-11-19T17:51:55Z</time>
      </trkpt>
      <trkpt lat="45.83168" lon="4.55776">
        <ele>452</ele>
        <time>2021-11-19T17:52:13Z</time>
      </trkpt>
      <trkpt lat="45.8316" lon="4.5572">
        <ele>450</ele>
        <time>2021-11-19T17:52:22Z</time>
      </trkpt>
      <trkpt lat="45.83147" lon="4.55661">
        <ele>450</ele>
        <time>2021-11-19T17:52:32Z</time>
      </trkpt>
      <trkpt lat="45.83134" lon="4.55621">
        <ele>451</ele>
        <time>2021-11-19T17:52:39Z</time>
      </trkpt>
      <trkpt lat="45.83092" lon="4.55527">
        <ele>455</ele>
        <time>2021-11-19T17:52:58Z</time>
      </trkpt>
      <trkpt lat="45.83072" lon="4.55455">
        <ele>454</ele>
        <time>2021-11-19T17:53:10Z</time>
      </trkpt>
      <trkpt lat="45.83052" lon="4.55293">
        <ele>453</ele>
        <time>2021-11-19T17:53:37Z</time>
      </trkpt>
      <trkpt lat="45.83044" lon="4.55288">
        <ele>453</ele>
        <time>2021-11-19T17:53:39Z</time>
      </trkpt>
      <trkpt lat="45.8303" lon="4.55292">
        <ele>454</ele>
        <time>2021-11-19T17:53:42Z</time>
      </trkpt>
      <trkpt lat="45.83017" lon="4.55305">
        <ele>456</ele>
        <time>2021-11-19T17:53:46Z</time>
      </trkpt>
      <trkpt lat="45.82942" lon="4.55344">
        <ele>461</ele>
        <time>2021-11-19T17:54:05Z</time>
      </trkpt>
      <trkpt lat="45.82881" lon="4.55396">
        <ele>466</ele>
        <time>2021-11-19T17:54:21Z</time>
      </trkpt>
      <trkpt lat="45.82798" lon="4.55493">
        <ele>468</ele>
        <time>2021-11-19T17:54:46Z</time>
      </trkpt>
      <trkpt lat="45.8272" lon="4.55567">
        <ele>470</ele>
        <time>2021-11-19T17:55:08Z</time>
      </trkpt>
      <trkpt lat="45.82697" lon="4.55585">
        <ele>472</ele>
        <time>2021-11-19T17:55:14Z</time>
      </trkpt>
      <trkpt lat="45.82664" lon="4.55622">
        <ele>474</ele>
        <time>2021-11-19T17:55:24Z</time>
      </trkpt>
      <trkpt lat="45.82607" lon="4.55749">
        <ele>476</ele>
        <time>2021-11-19T17:55:49Z</time>
      </trkpt>
      <trkpt lat="45.82551" lon="4.55862">
        <ele>472</ele>
        <time>2021-11-19T17:56:11Z</time>
      </trkpt>
      <trkpt lat="45.82503" lon="4.55922">
        <ele>473</ele>
        <time>2021-11-19T17:56:26Z</time>
      </trkpt>
      <trkpt lat="45.82476" lon="4.55948">
        <ele>471</ele>
        <time>2021-11-19T17:56:34Z</time>
      </trkpt>
      <trkpt lat="45.82446" lon="4.55968">
        <ele>470</ele>
        <time>2021-11-19T17:56:41Z</time>
      </trkpt>
      <trkpt lat="45.82397" lon="4.56029">
        <ele>464</ele>
        <time>2021-11-19T17:56:56Z</time>
      </trkpt>
      <trkpt lat="45.82366" lon="4.56058">
        <ele>461</ele>
        <time>2021-11-19T17:57:05Z</time>
      </trkpt>
      <trkpt lat="45.82351" lon="4.56093">
        <ele>456</ele>
        <time>2021-11-19T17:57:12Z</time>
      </trkpt>
      <trkpt lat="45.82281" lon="4.56157">
        <ele>445</ele>
        <time>2021-11-19T17:57:31Z</time>
      </trkpt>
      <trkpt lat="45.82168" lon="4.56017">
        <ele>449</ele>
        <time>2021-11-19T17:58:06Z</time>
      </trkpt>
      <trkpt lat="45.82055" lon="4.55892">
        <ele>442</ele>
        <time>2021-11-19T17:58:39Z</time>
      </trkpt>
      <trkpt lat="45.82039" lon="4.55878">
        <ele>440</ele>
        <time>2021-11-19T17:58:44Z</time>
      </trkpt>
      <trkpt lat="45.8203" lon="4.55882">
        <ele>437</ele>
        <time>2021-11-19T17:58:46Z</time>
      </trkpt>
      <trkpt lat="45.82004" lon="4.55913">
        <ele>428</ele>
        <time>2021-11-19T17:58:54Z</time>
      </trkpt>
      <trkpt lat="45.81998" lon="4.55914">
        <ele>427</ele>
        <time>2021-11-19T17:58:55Z</time>
      </trkpt>
      <trkpt lat="45.81922" lon="4.55887">
        <ele>413</ele>
        <time>2021-11-19T17:59:13Z</time>
      </trkpt>
      <trkpt lat="45.81904" lon="4.55931">
        <ele>408</ele>
        <time>2021-11-19T17:59:22Z</time>
      </trkpt>
      <trkpt lat="45.81888" lon="4.56046">
        <ele>400</ele>
        <time>2021-11-19T17:59:41Z</time>
      </trkpt>
      <trkpt lat="45.81854" lon="4.56081">
        <ele>392</ele>
        <time>2021-11-19T17:59:51Z</time>
      </trkpt>
      <trkpt lat="45.81822" lon="4.56123">
        <ele>385</ele>
        <time>2021-11-19T18:00:01Z</time>
      </trkpt>
      <trkpt lat="45.81785" lon="4.56185">
        <ele>376</ele>
        <time>2021-11-19T18:00:14Z</time>
      </trkpt>
      <trkpt lat="45.81774" lon="4.56189">
        <ele>375</ele>
        <time>2021-11-19T18:00:17Z</time>
      </trkpt>
      <trkpt lat="45.81783" lon="4.56119">
        <ele>379</ele>
        <time>2021-11-19T18:00:28Z</time>
      </trkpt>
      <trkpt lat="45.81786" lon="4.56075">
        <ele>383</ele>
        <time>2021-11-19T18:00:36Z</time>
      </trkpt>
      <trkpt lat="45.81776" lon="4.55995">
        <ele>384</ele>
        <time>2021-11-19T18:00:49Z</time>
      </trkpt>
      <trkpt lat="45.81787" lon="4.55938">
        <ele>383</ele>
        <time>2021-11-19T18:00:58Z</time>
      </trkpt>
      <trkpt lat="45.81831" lon="4.55797">
        <ele>388</ele>
        <time>2021-11-19T18:01:24Z</time>
      </trkpt>
      <trkpt lat="45.81832" lon="4.557">
        <ele>391</ele>
        <time>2021-11-19T18:01:39Z</time>
      </trkpt>
      <trkpt lat="45.81824" lon="4.55685">
        <ele>393</ele>
        <time>2021-11-19T18:01:42Z</time>
      </trkpt>
      <trkpt lat="45.81712" lon="4.55694">
        <ele>391</ele>
        <time>2021-11-19T18:02:09Z</time>
      </trkpt>
      <trkpt lat="45.81705" lon="4.55685">
        <ele>392</ele>
        <time>2021-11-19T18:02:11Z</time>
      </trkpt>
      <trkpt lat="45.81674" lon="4.55705">
        <ele>387</ele>
        <time>2021-11-19T18:02:19Z</time>
      </trkpt>
      <trkpt lat="45.81645" lon="4.55704">
        <ele>382</ele>
        <time>2021-11-19T18:02:25Z</time>
      </trkpt>
      <trkpt lat="45.81607" lon="4.55655">
        <ele>378</ele>
        <time>2021-11-19T18:02:37Z</time>
      </trkpt>
      <trkpt lat="45.81598" lon="4.55618">
        <ele>374</ele>
        <time>2021-11-19T18:02:44Z</time>
      </trkpt>
      <trkpt lat="45.81601" lon="4.55576">
        <ele>374</ele>
        <time>2021-11-19T18:02:51Z</time>
      </trkpt>
      <trkpt lat="45.81607" lon="4.55536">
        <ele>376</ele>
        <time>2021-11-19T18:02:57Z</time>
      </trkpt>
      <trkpt lat="45.81606" lon="4.555">
        <ele>377</ele>
        <time>2021-11-19T18:03:03Z</time>
      </trkpt>
      <trkpt lat="45.81577" lon="4.55458">
        <ele>370</ele>
        <time>2021-11-19T18:03:13Z</time>
      </trkpt>
      <trkpt lat="45.81573" lon="4.55432">
        <ele>370</ele>
        <time>2021-11-19T18:03:17Z</time>
      </trkpt>
      <trkpt lat="45.81583" lon="4.55391">
        <ele>374</ele>
        <time>2021-11-19T18:03:24Z</time>
      </trkpt>
      <trkpt lat="45.81594" lon="4.55367">
        <ele>378</ele>
        <time>2021-11-19T18:03:29Z</time>
      </trkpt>
      <trkpt lat="45.81607" lon="4.5535">
        <ele>382</ele>
        <time>2021-11-19T18:03:33Z</time>
      </trkpt>
      <trkpt lat="45.81624" lon="4.55288">
        <ele>385</ele>
        <time>2021-11-19T18:03:44Z</time>
      </trkpt>
      <trkpt lat="45.81637" lon="4.55175">
        <ele>382</ele>
        <time>2021-11-19T18:04:02Z</time>
      </trkpt>
      <trkpt lat="45.81644" lon="4.55084">
        <ele>381</ele>
        <time>2021-11-19T18:04:17Z</time>
      </trkpt>
      <trkpt lat="45.81642" lon="4.55049">
        <ele>379</ele>
        <time>2021-11-19T18:04:23Z</time>
      </trkpt>
      <trkpt lat="45.81629" lon="4.5499">
        <ele>372</ele>
        <time>2021-11-19T18:04:33Z</time>
      </trkpt>
      <trkpt lat="45.81628" lon="4.54972">
        <ele>371</ele>
        <time>2021-11-19T18:04:36Z</time>
      </trkpt>
      <trkpt lat="45.81634" lon="4.54944">
        <ele>371</ele>
        <time>2021-11-19T18:04:41Z</time>
      </trkpt>
      <trkpt lat="45.8163" lon="4.54939">
        <ele>369</ele>
        <time>2021-11-19T18:04:42Z</time>
      </trkpt>
      <trkpt lat="45.81621" lon="4.54949">
        <ele>368</ele>
        <time>2021-11-19T18:04:45Z</time>
      </trkpt>
      <trkpt lat="45.81613" lon="4.54984">
        <ele>367</ele>
        <time>2021-11-19T18:04:51Z</time>
      </trkpt>
      <trkpt lat="45.81611" lon="4.55021">
        <ele>367</ele>
        <time>2021-11-19T18:04:57Z</time>
      </trkpt>
      <trkpt lat="45.81605" lon="4.55026">
        <ele>366</ele>
        <time>2021-11-19T18:04:58Z</time>
      </trkpt>
      <trkpt lat="45.81602" lon="4.55018">
        <ele>365</ele>
        <time>2021-11-19T18:05:00Z</time>
      </trkpt>
      <trkpt lat="45.81601" lon="4.55001">
        <ele>364</ele>
        <time>2021-11-19T18:05:03Z</time>
      </trkpt>
      <trkpt lat="45.81606" lon="4.54959">
        <ele>364</ele>
        <time>2021-11-19T18:05:10Z</time>
      </trkpt>
      <trkpt lat="45.81617" lon="4.54924">
        <ele>366</ele>
        <time>2021-11-19T18:05:16Z</time>
      </trkpt>
      <trkpt lat="45.81646" lon="4.54879">
        <ele>368</ele>
        <time>2021-11-19T18:05:26Z</time>
      </trkpt>
      <trkpt lat="45.81651" lon="4.54844">
        <ele>366</ele>
        <time>2021-11-19T18:05:32Z</time>
      </trkpt>
      <trkpt lat="45.81649" lon="4.54821">
        <ele>364</ele>
        <time>2021-11-19T18:05:35Z</time>
      </trkpt>
      <trkpt lat="45.81644" lon="4.54809">
        <ele>363</ele>
        <time>2021-11-19T18:05:38Z</time>
      </trkpt>
      <trkpt lat="45.81617" lon="4.54823">
        <ele>359</ele>
        <time>2021-11-19T18:05:44Z</time>
      </trkpt>
      <trkpt lat="45.81599" lon="4.54836">
        <ele>356</ele>
        <time>2021-11-19T18:05:49Z</time>
      </trkpt>
      <trkpt lat="45.81595" lon="4.54834">
        <ele>355</ele>
        <time>2021-11-19T18:05:50Z</time>
      </trkpt>
      <trkpt lat="45.81598" lon="4.54812">
        <ele>356</ele>
        <time>2021-11-19T18:05:54Z</time>
      </trkpt>
      <trkpt lat="45.81615" lon="4.54744">
        <ele>358</ele>
        <time>2021-11-19T18:06:06Z</time>
      </trkpt>
      <trkpt lat="45.81628" lon="4.54724">
        <ele>358</ele>
        <time>2021-11-19T18:06:10Z</time>
      </trkpt>
      <trkpt lat="45.81629" lon="4.54683">
        <ele>356</ele>
        <time>2021-11-19T18:06:17Z</time>
      </trkpt>
      <trkpt lat="45.81609" lon="4.54674">
        <ele>357</ele>
        <time>2021-11-19T18:06:22Z</time>
      </trkpt>
      <trkpt lat="45.81546" lon="4.54668">
        <ele>365</ele>
        <time>2021-11-19T18:06:36Z</time>
      </trkpt>
      <trkpt lat="45.81525" lon="4.54648">
        <ele>371</ele>
        <time>2021-11-19T18:06:42Z</time>
      </trkpt>
      <trkpt lat="45.81523" lon="4.54687">
        <ele>369</ele>
        <time>2021-11-19T18:06:49Z</time>
      </trkpt>
      <trkpt lat="45.81516" lon="4.54729">
        <ele>368</ele>
        <time>2021-11-19T18:06:56Z</time>
      </trkpt>
      <trkpt lat="45.81506" lon="4.54754">
        <ele>369</ele>
        <time>2021-11-19T18:07:00Z</time>
      </trkpt>
      <trkpt lat="45.81477" lon="4.54784">
        <ele>371</ele>
        <time>2021-11-19T18:07:09Z</time>
      </trkpt>
      <trkpt lat="45.8143" lon="4.54864">
        <ele>375</ele>
        <time>2021-11-19T18:07:26Z</time>
      </trkpt>
      <trkpt lat="45.81392" lon="4.5496">
        <ele>377</ele>
        <time>2021-11-19T18:07:44Z</time>
      </trkpt>
      <trkpt lat="45.81338" lon="4.5506">
        <ele>380</ele>
        <time>2021-11-19T18:08:04Z</time>
      </trkpt>
      <trkpt lat="45.81258" lon="4.5513">
        <ele>383</ele>
        <time>2021-11-19T18:08:26Z</time>
      </trkpt>
      <trkpt lat="45.81205" lon="4.55149">
        <ele>388</ele>
        <time>2021-11-19T18:08:39Z</time>
      </trkpt>
      <trkpt lat="45.81178" lon="4.55142">
        <ele>393</ele>
        <time>2021-11-19T18:08:45Z</time>
      </trkpt>
      <trkpt lat="45.81144" lon="4.55141">
        <ele>397</ele>
        <time>2021-11-19T18:08:53Z</time>
      </trkpt>
      <trkpt lat="45.81107" lon="4.55177">
        <ele>397</ele>
        <time>2021-11-19T18:09:04Z</time>
      </trkpt>
      <trkpt lat="45.81019" lon="4.55226">
        <ele>404</ele>
        <time>2021-11-19T18:09:26Z</time>
      </trkpt>
      <trkpt lat="45.80975" lon="4.55291">
        <ele>405</ele>
        <time>2021-11-19T18:09:40Z</time>
      </trkpt>
      <trkpt lat="45.80978" lon="4.55349">
        <ele>399</ele>
        <time>2021-11-19T18:09:50Z</time>
      </trkpt>
      <trkpt lat="45.8096" lon="4.55397">
        <ele>396</ele>
        <time>2021-11-19T18:09:59Z</time>
      </trkpt>
      <trkpt lat="45.8094" lon="4.55425">
        <ele>395</ele>
        <time>2021-11-19T18:10:05Z</time>
      </trkpt>
      <trkpt lat="45.8092" lon="4.55444">
        <ele>396</ele>
        <time>2021-11-19T18:10:11Z</time>
      </trkpt>
      <trkpt lat="45.80871" lon="4.55536">
        <ele>396</ele>
        <time>2021-11-19T18:10:30Z</time>
      </trkpt>
      <trkpt lat="45.80851" lon="4.55524">
        <ele>399</ele>
        <time>2021-11-19T18:10:35Z</time>
      </trkpt>
      <trkpt lat="45.80679" lon="4.55511">
        <ele>415</ele>
        <time>2021-11-19T18:11:15Z</time>
      </trkpt>
      <trkpt lat="45.80614" lon="4.5551">
        <ele>416</ele>
        <time>2021-11-19T18:11:30Z</time>
      </trkpt>
      <trkpt lat="45.8059" lon="4.55649">
        <ele>412</ele>
        <time>2021-11-19T18:11:54Z</time>
      </trkpt>
      <trkpt lat="45.80576" lon="4.55715">
        <ele>412</ele>
        <time>2021-11-19T18:12:05Z</time>
      </trkpt>
      <trkpt lat="45.80554" lon="4.55784">
        <ele>411</ele>
        <time>2021-11-19T18:12:17Z</time>
      </trkpt>
      <trkpt lat="45.80534" lon="4.55857">
        <ele>409</ele>
        <time>2021-11-19T18:12:30Z</time>
      </trkpt>
      <trkpt lat="45.80517" lon="4.55905">
        <ele>407</ele>
        <time>2021-11-19T18:12:39Z</time>
      </trkpt>
      <trkpt lat="45.80512" lon="4.55976">
        <ele>403</ele>
        <time>2021-11-19T18:12:50Z</time>
      </trkpt>
      <trkpt lat="45.80498" lon="4.56098">
        <ele>402</ele>
        <time>2021-11-19T18:13:10Z</time>
      </trkpt>
      <trkpt lat="45.80476" lon="4.56182">
        <ele>398</ele>
        <time>2021-11-19T18:13:25Z</time>
      </trkpt>
      <trkpt lat="45.80468" lon="4.56262">
        <ele>394</ele>
        <time>2021-11-19T18:13:38Z</time>
      </trkpt>
      <trkpt lat="45.80472" lon="4.56327">
        <ele>392</ele>
        <time>2021-11-19T18:13:49Z</time>
      </trkpt>
      <trkpt lat="45.80478" lon="4.56367">
        <ele>392</ele>
        <time>2021-11-19T18:13:55Z</time>
      </trkpt>
      <trkpt lat="45.80504" lon="4.56437">
        <ele>394</ele>
        <time>2021-11-19T18:14:08Z</time>
      </trkpt>
      <trkpt lat="45.80532" lon="4.56532">
        <ele>399</ele>
        <time>2021-11-19T18:14:25Z</time>
      </trkpt>
      <trkpt lat="45.80534" lon="4.56626">
        <ele>402</ele>
        <time>2021-11-19T18:14:40Z</time>
      </trkpt>
      <trkpt lat="45.80529" lon="4.56756">
        <ele>401</ele>
        <time>2021-11-19T18:15:02Z</time>
      </trkpt>
      <trkpt lat="45.8053" lon="4.56808">
        <ele>399</ele>
        <time>2021-11-19T18:15:10Z</time>
      </trkpt>
      <trkpt lat="45.80535" lon="4.56883">
        <ele>394</ele>
        <time>2021-11-19T18:15:22Z</time>
      </trkpt>
      <trkpt lat="45.80554" lon="4.56934">
        <ele>392</ele>
        <time>2021-11-19T18:15:32Z</time>
      </trkpt>
      <trkpt lat="45.80563" lon="4.56973">
        <ele>389</ele>
        <time>2021-11-19T18:15:38Z</time>
      </trkpt>
      <trkpt lat="45.8056" lon="4.5705">
        <ele>382</ele>
        <time>2021-11-19T18:15:51Z</time>
      </trkpt>
      <trkpt lat="45.80555" lon="4.57077">
        <ele>380</ele>
        <time>2021-11-19T18:15:56Z</time>
      </trkpt>
      <trkpt lat="45.80536" lon="4.57115">
        <ele>375</ele>
        <time>2021-11-19T18:16:03Z</time>
      </trkpt>
      <trkpt lat="45.80491" lon="4.57231">
        <ele>365</ele>
        <time>2021-11-19T18:16:25Z</time>
      </trkpt>
      <trkpt lat="45.80437" lon="4.57402">
        <ele>355</ele>
        <time>2021-11-19T18:16:55Z</time>
      </trkpt>
      <trkpt lat="45.80439" lon="4.57523">
        <ele>348</ele>
        <time>2021-11-19T18:17:15Z</time>
      </trkpt>
      <trkpt lat="45.80422" lon="4.57602">
        <ele>343</ele>
        <time>2021-11-19T18:17:29Z</time>
      </trkpt>
      <trkpt lat="45.80414" lon="4.57655">
        <ele>340</ele>
        <time>2021-11-19T18:17:37Z</time>
      </trkpt>
      <trkpt lat="45.80405" lon="4.57762">
        <ele>336</ele>
        <time>2021-11-19T18:17:55Z</time>
      </trkpt>
      <trkpt lat="45.80411" lon="4.57913">
        <ele>332</ele>
        <time>2021-11-19T18:18:20Z</time>
      </trkpt>
      <trkpt lat="45.80421" lon="4.57963">
        <ele>332</ele>
        <time>2021-11-19T18:18:28Z</time>
      </trkpt>
      <trkpt lat="45.80441" lon="4.58002">
        <ele>331</ele>
        <time>2021-11-19T18:18:36Z</time>
      </trkpt>
      <trkpt lat="45.80483" lon="4.58072">
        <ele>330</ele>
        <time>2021-11-19T18:18:51Z</time>
      </trkpt>
      <trkpt lat="45.80598" lon="4.58235">
        <ele>325</ele>
        <time>2021-11-19T18:19:29Z</time>
      </trkpt>
      <trkpt lat="45.80625" lon="4.58283">
        <ele>324</ele>
        <time>2021-11-19T18:19:39Z</time>
      </trkpt>
      <trkpt lat="45.80645" lon="4.58331">
        <ele>324</ele>
        <time>2021-11-19T18:19:48Z</time>
      </trkpt>
      <trkpt lat="45.80663" lon="4.58357">
        <ele>323</ele>
        <time>2021-11-19T18:19:54Z</time>
      </trkpt>
      <trkpt lat="45.8068" lon="4.58407">
        <ele>324</ele>
        <time>2021-11-19T18:20:03Z</time>
      </trkpt>
      <trkpt lat="45.80698" lon="4.58475">
        <ele>321</ele>
        <time>2021-11-19T18:20:15Z</time>
      </trkpt>
      <trkpt lat="45.80701" lon="4.58496">
        <ele>320</ele>
        <time>2021-11-19T18:20:18Z</time>
      </trkpt>
      <trkpt lat="45.80703" lon="4.58541">
        <ele>318</ele>
        <time>2021-11-19T18:20:25Z</time>
      </trkpt>
      <trkpt lat="45.80702" lon="4.58619">
        <ele>315</ele>
        <time>2021-11-19T18:20:38Z</time>
      </trkpt>
      <trkpt lat="45.80707" lon="4.5865">
        <ele>313</ele>
        <time>2021-11-19T18:20:43Z</time>
      </trkpt>
      <trkpt lat="45.80711" lon="4.58657">
        <ele>312</ele>
        <time>2021-11-19T18:20:45Z</time>
      </trkpt>
      <trkpt lat="45.80696" lon="4.58689">
        <ele>311</ele>
        <time>2021-11-19T18:20:51Z</time>
      </trkpt>
      <trkpt lat="45.80615" lon="4.58764">
        <ele>306</ele>
        <time>2021-11-19T18:21:14Z</time>
      </trkpt>
      <trkpt lat="45.80579" lon="4.58788">
        <ele>303</ele>
        <time>2021-11-19T18:21:23Z</time>
      </trkpt>
      <trkpt lat="45.80549" lon="4.58805">
        <ele>302</ele>
        <time>2021-11-19T18:21:30Z</time>
      </trkpt>
      <trkpt lat="45.80525" lon="4.58815">
        <ele>301</ele>
        <time>2021-11-19T18:21:36Z</time>
      </trkpt>
      <trkpt lat="45.80484" lon="4.58842">
        <ele>299</ele>
        <time>2021-11-19T18:21:47Z</time>
      </trkpt>
      <trkpt lat="45.80438" lon="4.58878">
        <ele>295</ele>
        <time>2021-11-19T18:21:59Z</time>
      </trkpt>
      <trkpt lat="45.80411" lon="4.58892">
        <ele>294</ele>
        <time>2021-11-19T18:22:06Z</time>
      </trkpt>
      <trkpt lat="45.80386" lon="4.58901">
        <ele>292</ele>
        <time>2021-11-19T18:22:12Z</time>
      </trkpt>
      <trkpt lat="45.80292" lon="4.58907">
        <ele>286</ele>
        <time>2021-11-19T18:22:34Z</time>
      </trkpt>
      <trkpt lat="45.80254" lon="4.58891">
        <ele>283</ele>
        <time>2021-11-19T18:22:43Z</time>
      </trkpt>
      <trkpt lat="45.80224" lon="4.58892">
        <ele>279</ele>
        <time>2021-11-19T18:22:50Z</time>
      </trkpt>
      <trkpt lat="45.80148" lon="4.58887">
        <ele>268</ele>
        <time>2021-11-19T18:23:08Z</time>
      </trkpt>
      <trkpt lat="45.8013" lon="4.58891">
        <ele>265</ele>
        <time>2021-11-19T18:23:12Z</time>
      </trkpt>
      <trkpt lat="45.80088" lon="4.58921">
        <ele>259</ele>
        <time>2021-11-19T18:23:23Z</time>
      </trkpt>
      <trkpt lat="45.80064" lon="4.58935">
        <ele>257</ele>
        <time>2021-11-19T18:23:29Z</time>
      </trkpt>
      <trkpt lat="45.80024" lon="4.58998">
        <ele>255</ele>
        <time>2021-11-19T18:23:43Z</time>
      </trkpt>
      <trkpt lat="45.80016" lon="4.58991">
        <ele>255</ele>
        <time>2021-11-19T18:23:45Z</time>
      </trkpt>
      <trkpt lat="45.8001" lon="4.58978">
        <ele>255</ele>
        <time>2021-11-19T18:23:48Z</time>
      </trkpt>
      <trkpt lat="45.80008" lon="4.58937">
        <ele>255</ele>
        <time>2021-11-19T18:23:54Z</time>
      </trkpt>
      <trkpt lat="45.8" lon="4.58942">
        <ele>255</ele>
        <time>2021-11-19T18:23:56Z</time>
      </trkpt>
      <trkpt lat="45.79967" lon="4.58928">
        <ele>254</ele>
        <time>2021-11-19T18:24:04Z</time>
      </trkpt>
      <trkpt lat="45.79955" lon="4.5893">
        <ele>254</ele>
        <time>2021-11-19T18:24:07Z</time>
      </trkpt>
      <trkpt lat="45.79951" lon="4.58912">
        <ele>255</ele>
        <time>2021-11-19T18:24:10Z</time>
      </trkpt>
      <trkpt lat="45.79939" lon="4.58893">
        <ele>258</ele>
        <time>2021-11-19T18:24:14Z</time>
      </trkpt>
      <trkpt lat="45.79868" lon="4.58856">
        <ele>263</ele>
        <time>2021-11-19T18:24:32Z</time>
      </trkpt>
      <trkpt lat="45.79833" lon="4.58851">
        <ele>263</ele>
        <time>2021-11-19T18:24:40Z</time>
      </trkpt>
      <trkpt lat="45.79815" lon="4.58859">
        <ele>260</ele>
        <time>2021-11-19T18:24:45Z</time>
      </trkpt>
      <trkpt lat="45.79779" lon="4.58919">
        <ele>251</ele>
        <time>2021-11-19T18:24:58Z</time>
      </trkpt>
      <trkpt lat="45.79714" lon="4.59036">
        <ele>253</ele>
        <time>2021-11-19T18:25:22Z</time>
      </trkpt>
      <trkpt lat="45.79693" lon="4.59036">
        <ele>254</ele>
        <time>2021-11-19T18:25:27Z</time>
      </trkpt>
      <trkpt lat="45.79668" lon="4.59031">
        <ele>254</ele>
        <time>2021-11-19T18:25:33Z</time>
      </trkpt>
      <trkpt lat="45.79659" lon="4.59038">
        <ele>255</ele>
        <time>2021-11-19T18:25:35Z</time>
      </trkpt>
      <trkpt lat="45.79642" lon="4.59068">
        <ele>258</ele>
        <time>2021-11-19T18:25:41Z</time>
      </trkpt>
      <trkpt lat="45.79623" lon="4.59093">
        <ele>261</ele>
        <time>2021-11-19T18:25:47Z</time>
      </trkpt>
      <trkpt lat="45.7959" lon="4.59133">
        <ele>267</ele>
        <time>2021-11-19T18:25:58Z</time>
      </trkpt>
      <trkpt lat="45.79572" lon="4.59143">
        <ele>271</ele>
        <time>2021-11-19T18:26:02Z</time>
      </trkpt>
      <trkpt lat="45.79548" lon="4.59181">
        <ele>278</ele>
        <time>2021-11-19T18:26:10Z</time>
      </trkpt>
      <trkpt lat="45.79495" lon="4.59204">
        <ele>289</ele>
        <time>2021-11-19T18:26:23Z</time>
      </trkpt>
      <trkpt lat="45.79465" lon="4.59208">
        <ele>293</ele>
        <time>2021-11-19T18:26:30Z</time>
      </trkpt>
      <trkpt lat="45.79445" lon="4.59215">
        <ele>296</ele>
        <time>2021-11-19T18:26:35Z</time>
      </trkpt>
      <trkpt lat="45.79389" lon="4.59242">
        <ele>303</ele>
        <time>2021-11-19T18:26:49Z</time>
      </trkpt>
      <trkpt lat="45.79372" lon="4.59247">
        <ele>304</ele>
        <time>2021-11-19T18:26:53Z</time>
      </trkpt>
      <trkpt lat="45.79352" lon="4.59244">
        <ele>305</ele>
        <time>2021-11-19T18:26:58Z</time>
      </trkpt>
      <trkpt lat="45.79329" lon="4.59248">
        <ele>307</ele>
        <time>2021-11-19T18:27:03Z</time>
      </trkpt>
      <trkpt lat="45.79285" lon="4.59297">
        <ele>312</ele>
        <time>2021-11-19T18:27:16Z</time>
      </trkpt>
      <trkpt lat="45.79269" lon="4.5931">
        <ele>313</ele>
        <time>2021-11-19T18:27:20Z</time>
      </trkpt>
      <trkpt lat="45.79256" lon="4.59314">
        <ele>314</ele>
        <time>2021-11-19T18:27:24Z</time>
      </trkpt>
      <trkpt lat="45.79212" lon="4.5932">
        <ele>319</ele>
        <time>2021-11-19T18:27:34Z</time>
      </trkpt>
      <trkpt lat="45.7917" lon="4.59333">
        <ele>325</ele>
        <time>2021-11-19T18:27:44Z</time>
      </trkpt>
      <trkpt lat="45.7915" lon="4.59334">
        <ele>327</ele>
        <time>2021-11-19T18:27:49Z</time>
      </trkpt>
      <trkpt lat="45.7913" lon="4.59327">
        <ele>328</ele>
        <time>2021-11-19T18:27:53Z</time>
      </trkpt>
      <trkpt lat="45.79102" lon="4.59322">
        <ele>331</ele>
        <time>2021-11-19T18:28:00Z</time>
      </trkpt>
      <trkpt lat="45.79083" lon="4.59323">
        <ele>333</ele>
        <time>2021-11-19T18:28:04Z</time>
      </trkpt>
      <trkpt lat="45.79068" lon="4.59332">
        <ele>336</ele>
        <time>2021-11-19T18:28:08Z</time>
      </trkpt>
      <trkpt lat="45.79049" lon="4.59334">
        <ele>339</ele>
        <time>2021-11-19T18:28:13Z</time>
      </trkpt>
      <trkpt lat="45.79036" lon="4.59342">
        <ele>341</ele>
        <time>2021-11-19T18:28:16Z</time>
      </trkpt>
      <trkpt lat="45.78975" lon="4.59416">
        <ele>353</ele>
        <time>2021-11-19T18:28:35Z</time>
      </trkpt>
      <trkpt lat="45.78899" lon="4.59444">
        <ele>367</ele>
        <time>2021-11-19T18:28:53Z</time>
      </trkpt>
      <trkpt lat="45.78864" lon="4.59464">
        <ele>377</ele>
        <time>2021-11-19T18:29:02Z</time>
      </trkpt>
      <trkpt lat="45.7884" lon="4.59469">
        <ele>383</ele>
        <time>2021-11-19T18:29:07Z</time>
      </trkpt>
      <trkpt lat="45.78827" lon="4.59468">
        <ele>385</ele>
        <time>2021-11-19T18:29:10Z</time>
      </trkpt>
      <trkpt lat="45.7879" lon="4.59449">
        <ele>388</ele>
        <time>2021-11-19T18:29:20Z</time>
      </trkpt>
      <trkpt lat="45.78757" lon="4.59417">
        <ele>386</ele>
        <time>2021-11-19T18:29:29Z</time>
      </trkpt>
      <trkpt lat="45.78739" lon="4.59406">
        <ele>385</ele>
        <time>2021-11-19T18:29:34Z</time>
      </trkpt>
      <trkpt lat="45.78684" lon="4.59381">
        <ele>383</ele>
        <time>2021-11-19T18:29:47Z</time>
      </trkpt>
      <trkpt lat="45.78615" lon="4.59345">
        <ele>379</ele>
        <time>2021-11-19T18:30:04Z</time>
      </trkpt>
      <trkpt lat="45.78609" lon="4.5934">
        <ele>378</ele>
        <time>2021-11-19T18:30:06Z</time>
      </trkpt>
      <trkpt lat="45.78605" lon="4.59322">
        <ele>377</ele>
        <time>2021-11-19T18:30:09Z</time>
      </trkpt>
      <trkpt lat="45.78604" lon="4.59301">
        <ele>377</ele>
        <time>2021-11-19T18:30:12Z</time>
      </trkpt>
      <trkpt lat="45.78627" lon="4.59205">
        <ele>364</ele>
        <time>2021-11-19T18:30:29Z</time>
      </trkpt>
      <trkpt lat="45.78625" lon="4.59195">
        <ele>363</ele>
        <time>2021-11-19T18:30:30Z</time>
      </trkpt>
      <trkpt lat="45.7857" lon="4.59137">
        <ele>367</ele>
        <time>2021-11-19T18:30:46Z</time>
      </trkpt>
      <trkpt lat="45.78554" lon="4.59124">
        <ele>367</ele>
        <time>2021-11-19T18:30:51Z</time>
      </trkpt>
      <trkpt lat="45.78514" lon="4.59096">
        <ele>367</ele>
        <time>2021-11-19T18:31:01Z</time>
      </trkpt>
      <trkpt lat="45.785" lon="4.5909">
        <ele>368</ele>
        <time>2021-11-19T18:31:05Z</time>
      </trkpt>
      <trkpt lat="45.78458" lon="4.59058">
        <ele>360</ele>
        <time>2021-11-19T18:31:16Z</time>
      </trkpt>
      <trkpt lat="45.7839" lon="4.59021">
        <ele>353</ele>
        <time>2021-11-19T18:31:33Z</time>
      </trkpt>
      <trkpt lat="45.78374" lon="4.59009">
        <ele>349</ele>
        <time>2021-11-19T18:31:37Z</time>
      </trkpt>
      <trkpt lat="45.78367" lon="4.58999">
        <ele>347</ele>
        <time>2021-11-19T18:31:39Z</time>
      </trkpt>
      <trkpt lat="45.78357" lon="4.59005">
        <ele>348</ele>
        <time>2021-11-19T18:31:42Z</time>
      </trkpt>
      <trkpt lat="45.78231" lon="4.59033">
        <ele>351</ele>
        <time>2021-11-19T18:32:11Z</time>
      </trkpt>
      <trkpt lat="45.782" lon="4.59033">
        <ele>351</ele>
        <time>2021-11-19T18:32:19Z</time>
      </trkpt>
      <trkpt lat="45.78155" lon="4.59024">
        <ele>348</ele>
        <time>2021-11-19T18:32:29Z</time>
      </trkpt>
      <trkpt lat="45.78109" lon="4.59035">
        <ele>349</ele>
        <time>2021-11-19T18:32:40Z</time>
      </trkpt>
      <trkpt lat="45.78095" lon="4.59035">
        <ele>349</ele>
        <time>2021-11-19T18:32:43Z</time>
      </trkpt>
      <trkpt lat="45.78068" lon="4.59051">
        <ele>352</ele>
        <time>2021-11-19T18:32:50Z</time>
      </trkpt>
      <trkpt lat="45.78031" lon="4.5909">
        <ele>359</ele>
        <time>2021-11-19T18:33:01Z</time>
      </trkpt>
      <trkpt lat="45.78019" lon="4.59092">
        <ele>359</ele>
        <time>2021-11-19T18:33:04Z</time>
      </trkpt>
      <trkpt lat="45.78009" lon="4.59088">
        <ele>358</ele>
        <time>2021-11-19T18:33:06Z</time>
      </trkpt>
      <trkpt lat="45.77963" lon="4.59052">
        <ele>359</ele>
        <time>2021-11-19T18:33:18Z</time>
      </trkpt>
      <trkpt lat="45.77912" lon="4.59035">
        <ele>364</ele>
        <time>2021-11-19T18:33:31Z</time>
      </trkpt>
      <trkpt lat="45.77865" lon="4.59016">
        <ele>367</ele>
        <time>2021-11-19T18:33:42Z</time>
      </trkpt>
      <trkpt lat="45.77804" lon="4.5901">
        <ele>372</ele>
        <time>2021-11-19T18:33:56Z</time>
      </trkpt>
      <trkpt lat="45.77779" lon="4.59032">
        <ele>378</ele>
        <time>2021-11-19T18:34:03Z</time>
      </trkpt>
      <trkpt lat="45.7773" lon="4.59046">
        <ele>384</ele>
        <time>2021-11-19T18:34:15Z</time>
      </trkpt>
      <trkpt lat="45.77692" lon="4.59063">
        <ele>389</ele>
        <time>2021-11-19T18:34:24Z</time>
      </trkpt>
      <trkpt lat="45.77668" lon="4.5907">
        <ele>391</ele>
        <time>2021-11-19T18:34:30Z</time>
      </trkpt>
      <trkpt lat="45.77615" lon="4.59096">
        <ele>398</ele>
        <time>2021-11-19T18:34:43Z</time>
      </trkpt>
      <trkpt lat="45.77602" lon="4.59091">
        <ele>397</ele>
        <time>2021-11-19T18:34:46Z</time>
      </trkpt>
      <trkpt lat="45.77562" lon="4.59054">
        <ele>398</ele>
        <time>2021-11-19T18:34:57Z</time>
      </trkpt>
      <trkpt lat="45.77496" lon="4.59012">
        <ele>404</ele>
        <time>2021-11-19T18:35:14Z</time>
      </trkpt>
      <trkpt lat="45.77417" lon="4.58985">
        <ele>412</ele>
        <time>2021-11-19T18:35:33Z</time>
      </trkpt>
      <trkpt lat="45.77402" lon="4.58977">
        <ele>413</ele>
        <time>2021-11-19T18:35:37Z</time>
      </trkpt>
      <trkpt lat="45.77377" lon="4.58975">
        <ele>415</ele>
        <time>2021-11-19T18:35:43Z</time>
      </trkpt>
      <trkpt lat="45.77324" lon="4.58996">
        <ele>422</ele>
        <time>2021-11-19T18:35:56Z</time>
      </trkpt>
      <trkpt lat="45.77304" lon="4.58997">
        <ele>424</ele>
        <time>2021-11-19T18:36:00Z</time>
      </trkpt>
      <trkpt lat="45.77224" lon="4.58978">
        <ele>431</ele>
        <time>2021-11-19T18:36:19Z</time>
      </trkpt>
      <trkpt lat="45.77196" lon="4.58981">
        <ele>434</ele>
        <time>2021-11-19T18:36:26Z</time>
      </trkpt>
      <trkpt lat="45.7713" lon="4.59007">
        <ele>441</ele>
        <time>2021-11-19T18:36:42Z</time>
      </trkpt>
      <trkpt lat="45.77115" lon="4.59009">
        <ele>443</ele>
        <time>2021-11-19T18:36:45Z</time>
      </trkpt>
      <trkpt lat="45.77071" lon="4.5904">
        <ele>451</ele>
        <time>2021-11-19T18:36:57Z</time>
      </trkpt>
      <trkpt lat="45.77054" lon="4.59062">
        <ele>454</ele>
        <time>2021-11-19T18:37:02Z</time>
      </trkpt>
      <trkpt lat="45.77024" lon="4.59083">
        <ele>455</ele>
        <time>2021-11-19T18:37:10Z</time>
      </trkpt>
      <trkpt lat="45.76984" lon="4.59097">
        <ele>458</ele>
        <time>2021-11-19T18:37:19Z</time>
      </trkpt>
      <trkpt lat="45.76972" lon="4.5913">
        <ele>458</ele>
        <time>2021-11-19T18:37:25Z</time>
      </trkpt>
      <trkpt lat="45.76954" lon="4.59224">
        <ele>459</ele>
        <time>2021-11-19T18:37:41Z</time>
      </trkpt>
      <trkpt lat="45.76954" lon="4.59321">
        <ele>464</ele>
        <time>2021-11-19T18:37:57Z</time>
      </trkpt>
      <trkpt lat="45.76959" lon="4.59368">
        <ele>467</ele>
        <time>2021-11-19T18:38:05Z</time>
      </trkpt>
      <trkpt lat="45.76979" lon="4.59454">
        <ele>478</ele>
        <time>2021-11-19T18:38:20Z</time>
      </trkpt>
      <trkpt lat="45.76987" lon="4.59551">
        <ele>486</ele>
        <time>2021-11-19T18:38:36Z</time>
      </trkpt>
      <trkpt lat="45.7699" lon="4.59622">
        <ele>491</ele>
        <time>2021-11-19T18:38:47Z</time>
      </trkpt>
      <trkpt lat="45.76983" lon="4.59662">
        <ele>492</ele>
        <time>2021-11-19T18:38:54Z</time>
      </trkpt>
      <trkpt lat="45.76964" lon="4.59733">
        <ele>495</ele>
        <time>2021-11-19T18:39:06Z</time>
      </trkpt>
      <trkpt lat="45.76944" lon="4.59748">
        <ele>495</ele>
        <time>2021-11-19T18:39:12Z</time>
      </trkpt>
      <trkpt lat="45.7687" lon="4.59757">
        <ele>505</ele>
        <time>2021-11-19T18:39:29Z</time>
      </trkpt>
      <trkpt lat="45.76834" lon="4.59737">
        <ele>509</ele>
        <time>2021-11-19T18:39:38Z</time>
      </trkpt>
      <trkpt lat="45.76796" lon="4.59698">
        <ele>504</ele>
        <time>2021-11-19T18:39:49Z</time>
      </trkpt>
      <trkpt lat="45.76756" lon="4.59691">
        <ele>507</ele>
        <time>2021-11-19T18:39:58Z</time>
      </trkpt>
      <trkpt lat="45.76723" lon="4.59699">
        <ele>511</ele>
        <time>2021-11-19T18:40:06Z</time>
      </trkpt>
      <trkpt lat="45.7669" lon="4.59743">
        <ele>522</ele>
        <time>2021-11-19T18:40:17Z</time>
      </trkpt>
      <trkpt lat="45.76652" lon="4.59754">
        <ele>525</ele>
        <time>2021-11-19T18:40:26Z</time>
      </trkpt>
      <trkpt lat="45.76605" lon="4.59744">
        <ele>526</ele>
        <time>2021-11-19T18:40:37Z</time>
      </trkpt>
      <trkpt lat="45.76557" lon="4.59766">
        <ele>535</ele>
        <time>2021-11-19T18:40:48Z</time>
      </trkpt>
      <trkpt lat="45.7652" lon="4.59764">
        <ele>539</ele>
        <time>2021-11-19T18:40:57Z</time>
      </trkpt>
      <trkpt lat="45.76525" lon="4.59789">
        <ele>544</ele>
        <time>2021-11-19T18:41:01Z</time>
      </trkpt>
      <trkpt lat="45.76477" lon="4.59831">
        <ele>560</ele>
        <time>2021-11-19T18:41:14Z</time>
      </trkpt>
      <trkpt lat="45.76415" lon="4.59858">
        <ele>571</ele>
        <time>2021-11-19T18:41:30Z</time>
      </trkpt>
      <trkpt lat="45.76387" lon="4.59877">
        <ele>571</ele>
        <time>2021-11-19T18:41:37Z</time>
      </trkpt>
      <trkpt lat="45.76369" lon="4.59923">
        <ele>575</ele>
        <time>2021-11-19T18:41:45Z</time>
      </trkpt>
      <trkpt lat="45.76371" lon="4.59957">
        <ele>579</ele>
        <time>2021-11-19T18:41:51Z</time>
      </trkpt>
      <trkpt lat="45.7634" lon="4.60149">
        <ele>594</ele>
        <time>2021-11-19T18:42:23Z</time>
      </trkpt>
      <trkpt lat="45.7633" lon="4.60184">
        <ele>599</ele>
        <time>2021-11-19T18:42:29Z</time>
      </trkpt>
      <trkpt lat="45.76317" lon="4.60335">
        <ele>620</ele>
        <time>2021-11-19T18:42:54Z</time>
      </trkpt>
      <trkpt lat="45.76293" lon="4.60489">
        <ele>628</ele>
        <time>2021-11-19T18:43:20Z</time>
      </trkpt>
      <trkpt lat="45.7628" lon="4.60531">
        <ele>633</ele>
        <time>2021-11-19T18:43:27Z</time>
      </trkpt>
      <trkpt lat="45.76245" lon="4.60715">
        <ele>644</ele>
        <time>2021-11-19T18:43:58Z</time>
      </trkpt>
      <trkpt lat="45.76236" lon="4.60787">
        <ele>649</ele>
        <time>2021-11-19T18:44:10Z</time>
      </trkpt>
      <trkpt lat="45.76231" lon="4.60866">
        <ele>652</ele>
        <time>2021-11-19T18:44:23Z</time>
      </trkpt>
      <trkpt lat="45.76219" lon="4.60907">
        <ele>656</ele>
        <time>2021-11-19T18:44:30Z</time>
      </trkpt>
      <trkpt lat="45.76117" lon="4.60986">
        <ele>669</ele>
        <time>2021-11-19T18:44:57Z</time>
      </trkpt>
      <trkpt lat="45.76089" lon="4.61018">
        <ele>667</ele>
        <time>2021-11-19T18:45:06Z</time>
      </trkpt>
      <trkpt lat="45.76065" lon="4.61027">
        <ele>670</ele>
        <time>2021-11-19T18:45:12Z</time>
      </trkpt>
      <trkpt lat="45.76027" lon="4.61033">
        <ele>678</ele>
        <time>2021-11-19T18:45:21Z</time>
      </trkpt>
      <trkpt lat="45.75975" lon="4.6108">
        <ele>684</ele>
        <time>2021-11-19T18:45:35Z</time>
      </trkpt>
      <trkpt lat="45.75952" lon="4.61114">
        <ele>688</ele>
        <time>2021-11-19T18:45:43Z</time>
      </trkpt>
      <trkpt lat="45.75924" lon="4.61137">
        <ele>695</ele>
        <time>2021-11-19T18:45:50Z</time>
      </trkpt>
      <trkpt lat="45.75899" lon="4.61181">
        <ele>697</ele>
        <time>2021-11-19T18:45:59Z</time>
      </trkpt>
      <trkpt lat="45.75868" lon="4.61258">
        <ele>697</ele>
        <time>2021-11-19T18:46:14Z</time>
      </trkpt>
      <trkpt lat="45.75812" lon="4.61337">
        <ele>699</ele>
        <time>2021-11-19T18:46:32Z</time>
      </trkpt>
      <trkpt lat="45.7577" lon="4.61369">
        <ele>705</ele>
        <time>2021-11-19T18:46:43Z</time>
      </trkpt>
      <trkpt lat="45.75742" lon="4.61399">
        <ele>713</ele>
        <time>2021-11-19T18:46:52Z</time>
      </trkpt>
      <trkpt lat="45.75724" lon="4.61453">
        <ele>721</ele>
        <time>2021-11-19T18:47:01Z</time>
      </trkpt>
      <trkpt lat="45.75732" lon="4.61406">
        <ele>716</ele>
        <time>2021-11-19T18:47:09Z</time>
      </trkpt>
      <trkpt lat="45.75732" lon="4.61392">
        <ele>716</ele>
        <time>2021-11-19T18:47:11Z</time>
      </trkpt>
      <trkpt lat="45.75725" lon="4.61366">
        <ele>716</ele>
        <time>2021-11-19T18:47:16Z</time>
      </trkpt>
      <trkpt lat="45.75722" lon="4.61369">
        <ele>717</ele>
        <time>2021-11-19T18:47:17Z</time>
      </trkpt>
      <trkpt lat="45.75704" lon="4.61413">
        <ele>725</ele>
        <time>2021-11-19T18:47:25Z</time>
      </trkpt>
      <trkpt lat="45.75703" lon="4.61427">
        <ele>726</ele>
        <time>2021-11-19T18:47:27Z</time>
      </trkpt>
      <trkpt lat="45.75697" lon="4.61445">
        <ele>729</ele>
        <time>2021-11-19T18:47:31Z</time>
      </trkpt>
      <trkpt lat="45.75691" lon="4.61459">
        <ele>731</ele>
        <time>2021-11-19T18:47:33Z</time>
      </trkpt>
      <trkpt lat="45.75684" lon="4.61467">
        <ele>734</ele>
        <time>2021-11-19T18:47:35Z</time>
      </trkpt>
      <trkpt lat="45.75677" lon="4.61468">
        <ele>736</ele>
        <time>2021-11-19T18:47:37Z</time>
      </trkpt>
      <trkpt lat="45.75671" lon="4.61464">
        <ele>738</ele>
        <time>2021-11-19T18:47:39Z</time>
      </trkpt>
      <trkpt lat="45.75639" lon="4.61409">
        <ele>741</ele>
        <time>2021-11-19T18:47:50Z</time>
      </trkpt>
      <trkpt lat="45.75633" lon="4.61403">
        <ele>742</ele>
        <time>2021-11-19T18:47:52Z</time>
      </trkpt>
      <trkpt lat="45.75626" lon="4.61399">
        <ele>744</ele>
        <time>2021-11-19T18:47:54Z</time>
      </trkpt>
      <trkpt lat="45.75595" lon="4.61392">
        <ele>750</ele>
        <time>2021-11-19T18:48:01Z</time>
      </trkpt>
      <trkpt lat="45.75588" lon="4.61394">
        <ele>752</ele>
        <time>2021-11-19T18:48:03Z</time>
      </trkpt>
      <trkpt lat="45.75582" lon="4.61399">
        <ele>753</ele>
        <time>2021-11-19T18:48:04Z</time>
      </trkpt>
      <trkpt lat="45.75599" lon="4.61448">
        <ele>752</ele>
        <time>2021-11-19T18:48:13Z</time>
      </trkpt>
      <trkpt lat="45.75593" lon="4.61454">
        <ele>753</ele>
        <time>2021-11-19T18:48:15Z</time>
      </trkpt>
      <trkpt lat="45.75609" lon="4.61497">
        <ele>752</ele>
        <time>2021-11-19T18:48:23Z</time>
      </trkpt>
      <trkpt lat="45.75622" lon="4.61584">
        <ele>756</ele>
        <time>2021-11-19T18:48:37Z</time>
      </trkpt>
      <trkpt lat="45.75618" lon="4.61655">
        <ele>760</ele>
        <time>2021-11-19T18:48:49Z</time>
      </trkpt>
      <trkpt lat="45.75622" lon="4.6176">
        <ele>757</ele>
        <time>2021-11-19T18:49:06Z</time>
      </trkpt>
      <trkpt lat="45.7562" lon="4.61772">
        <ele>757</ele>
        <time>2021-11-19T18:49:08Z</time>
      </trkpt>
      <trkpt lat="45.75606" lon="4.6179">
        <ele>757</ele>
        <time>2021-11-19T18:49:13Z</time>
      </trkpt>
      <trkpt lat="45.756" lon="4.61793">
        <ele>757</ele>
        <time>2021-11-19T18:49:14Z</time>
      </trkpt>
      <trkpt lat="45.75594" lon="4.61792">
        <ele>757</ele>
        <time>2021-11-19T18:49:16Z</time>
      </trkpt>
      <trkpt lat="45.75587" lon="4.61784">
        <ele>758</ele>
        <time>2021-11-19T18:49:18Z</time>
      </trkpt>
      <trkpt lat="45.75534" lon="4.61703">
        <ele>763</ele>
        <time>2021-11-19T18:49:36Z</time>
      </trkpt>
      <trkpt lat="45.75521" lon="4.61689">
        <ele>765</ele>
        <time>2021-11-19T18:49:39Z</time>
      </trkpt>
      <trkpt lat="45.75476" lon="4.61652">
        <ele>771</ele>
        <time>2021-11-19T18:49:52Z</time>
      </trkpt>
      <trkpt lat="45.75433" lon="4.61636">
        <ele>774</ele>
        <time>2021-11-19T18:50:02Z</time>
      </trkpt>
      <trkpt lat="45.75415" lon="4.61627">
        <ele>776</ele>
        <time>2021-11-19T18:50:06Z</time>
      </trkpt>
      <trkpt lat="45.75368" lon="4.61596">
        <ele>780</ele>
        <time>2021-11-19T18:50:19Z</time>
      </trkpt>
      <trkpt lat="45.75349" lon="4.61587">
        <ele>781</ele>
        <time>2021-11-19T18:50:23Z</time>
      </trkpt>
      <trkpt lat="45.75315" lon="4.6158">
        <ele>781</ele>
        <time>2021-11-19T18:50:31Z</time>
      </trkpt>
      <trkpt lat="45.75298" lon="4.61574">
        <ele>780</ele>
        <time>2021-11-19T18:50:35Z</time>
      </trkpt>
      <trkpt lat="45.75287" lon="4.61545">
        <ele>780</ele>
        <time>2021-11-19T18:50:41Z</time>
      </trkpt>
      <trkpt lat="45.75276" lon="4.61491">
        <ele>781</ele>
        <time>2021-11-19T18:50:50Z</time>
      </trkpt>
      <trkpt lat="45.75272" lon="4.61381">
        <ele>776</ele>
        <time>2021-11-19T18:51:08Z</time>
      </trkpt>
      <trkpt lat="45.75263" lon="4.61308">
        <ele>771</ele>
        <time>2021-11-19T18:51:20Z</time>
      </trkpt>
      <trkpt lat="45.75238" lon="4.61199">
        <ele>761</ele>
        <time>2021-11-19T18:51:39Z</time>
      </trkpt>
      <trkpt lat="45.75229" lon="4.61182">
        <ele>760</ele>
        <time>2021-11-19T18:51:42Z</time>
      </trkpt>
      <trkpt lat="45.75178" lon="4.61123">
        <ele>756</ele>
        <time>2021-11-19T18:51:57Z</time>
      </trkpt>
      <trkpt lat="45.75175" lon="4.61114">
        <ele>756</ele>
        <time>2021-11-19T18:51:59Z</time>
      </trkpt>
      <trkpt lat="45.75152" lon="4.61074">
        <ele>756</ele>
        <time>2021-11-19T18:52:07Z</time>
      </trkpt>
      <trkpt lat="45.75136" lon="4.61032">
        <ele>752</ele>
        <time>2021-11-19T18:52:15Z</time>
      </trkpt>
      <trkpt lat="45.75104" lon="4.61023">
        <ele>752</ele>
        <time>2021-11-19T18:52:23Z</time>
      </trkpt>
      <trkpt lat="45.75018" lon="4.61035">
        <ele>753</ele>
        <time>2021-11-19T18:52:43Z</time>
      </trkpt>
      <trkpt lat="45.74989" lon="4.61046">
        <ele>752</ele>
        <time>2021-11-19T18:52:50Z</time>
      </trkpt>
      <trkpt lat="45.74977" lon="4.61053">
        <ele>752</ele>
        <time>2021-11-19T18:52:53Z</time>
      </trkpt>
      <trkpt lat="45.74947" lon="4.61057">
        <ele>750</ele>
        <time>2021-11-19T18:53:00Z</time>
      </trkpt>
      <trkpt lat="45.74933" lon="4.61065">
        <ele>749</ele>
        <time>2021-11-19T18:53:04Z</time>
      </trkpt>
      <trkpt lat="45.74892" lon="4.61106">
        <ele>744</ele>
        <time>2021-11-19T18:53:15Z</time>
      </trkpt>
      <trkpt lat="45.74867" lon="4.61139">
        <ele>739</ele>
        <time>2021-11-19T18:53:23Z</time>
      </trkpt>
      <trkpt lat="45.74853" lon="4.6115">
        <ele>738</ele>
        <time>2021-11-19T18:53:27Z</time>
      </trkpt>
      <trkpt lat="45.74831" lon="4.61162">
        <ele>737</ele>
        <time>2021-11-19T18:53:32Z</time>
      </trkpt>
      <trkpt lat="45.74821" lon="4.61158">
        <ele>737</ele>
        <time>2021-11-19T18:53:35Z</time>
      </trkpt>
      <trkpt lat="45.74802" lon="4.61145">
        <ele>737</ele>
        <time>2021-11-19T18:53:40Z</time>
      </trkpt>
      <trkpt lat="45.74789" lon="4.61146">
        <ele>736</ele>
        <time>2021-11-19T18:53:43Z</time>
      </trkpt>
      <trkpt lat="45.74781" lon="4.61167">
        <ele>738</ele>
        <time>2021-11-19T18:53:47Z</time>
      </trkpt>
      <trkpt lat="45.74771" lon="4.61147">
        <ele>736</ele>
        <time>2021-11-19T18:53:51Z</time>
      </trkpt>
      <trkpt lat="45.74693" lon="4.61058">
        <ele>731</ele>
        <time>2021-11-19T18:54:14Z</time>
      </trkpt>
      <trkpt lat="45.74654" lon="4.61003">
        <ele>725</ele>
        <time>2021-11-19T18:54:27Z</time>
      </trkpt>
      <trkpt lat="45.74613" lon="4.60917">
        <ele>724</ele>
        <time>2021-11-19T18:54:44Z</time>
      </trkpt>
      <trkpt lat="45.74601" lon="4.60905">
        <ele>726</ele>
        <time>2021-11-19T18:54:47Z</time>
      </trkpt>
      <trkpt lat="45.74559" lon="4.60821">
        <ele>727</ele>
        <time>2021-11-19T18:55:04Z</time>
      </trkpt>
      <trkpt lat="45.74535" lon="4.6076">
        <ele>727</ele>
        <time>2021-11-19T18:55:15Z</time>
      </trkpt>
      <trkpt lat="45.74493" lon="4.6071">
        <ele>736</ele>
        <time>2021-11-19T18:55:28Z</time>
      </trkpt>
      <trkpt lat="45.74456" lon="4.60693">
        <ele>746</ele>
        <time>2021-11-19T18:55:37Z</time>
      </trkpt>
      <trkpt lat="45.74358" lon="4.60621">
        <ele>766</ele>
        <time>2021-11-19T18:56:03Z</time>
      </trkpt>
      <trkpt lat="45.74323" lon="4.60586">
        <ele>771</ele>
        <time>2021-11-19T18:56:13Z</time>
      </trkpt>
      <trkpt lat="45.74251" lon="4.60567">
        <ele>785</ele>
        <time>2021-11-19T18:56:30Z</time>
      </trkpt>
      <trkpt lat="45.74234" lon="4.6055">
        <ele>789</ele>
        <time>2021-11-19T18:56:35Z</time>
      </trkpt>
      <trkpt lat="45.74222" lon="4.60524">
        <ele>789</ele>
        <time>2021-11-19T18:56:40Z</time>
      </trkpt>
      <trkpt lat="45.74206" lon="4.60508">
        <ele>793</ele>
        <time>2021-11-19T18:56:45Z</time>
      </trkpt>
      <trkpt lat="45.74167" lon="4.60443">
        <ele>802</ele>
        <time>2021-11-19T18:56:58Z</time>
      </trkpt>
      <trkpt lat="45.74151" lon="4.60406">
        <ele>806</ele>
        <time>2021-11-19T18:57:06Z</time>
      </trkpt>
      <trkpt lat="45.74125" lon="4.60369">
        <ele>816</ele>
        <time>2021-11-19T18:57:14Z</time>
      </trkpt>
      <trkpt lat="45.74082" lon="4.6037">
        <ele>829</ele>
        <time>2021-11-19T18:57:24Z</time>
      </trkpt>
      <trkpt lat="45.74053" lon="4.60355">
        <ele>834</ele>
        <time>2021-11-19T18:57:31Z</time>
      </trkpt>
      <trkpt lat="45.74037" lon="4.60361">
        <ele>836</ele>
        <time>2021-11-19T18:57:35Z</time>
      </trkpt>
      <trkpt lat="45.74022" lon="4.60358">
        <ele>839</ele>
        <time>2021-11-19T18:57:39Z</time>
      </trkpt>
      <trkpt lat="45.7397" lon="4.60321">
        <ele>840</ele>
        <time>2021-11-19T18:57:52Z</time>
      </trkpt>
      <trkpt lat="45.73868" lon="4.60258">
        <ele>832</ele>
        <time>2021-11-19T18:58:18Z</time>
      </trkpt>
      <trkpt lat="45.73802" lon="4.60221">
        <ele>827</ele>
        <time>2021-11-19T18:58:35Z</time>
      </trkpt>
      <trkpt lat="45.73782" lon="4.60316">
        <ele>829</ele>
        <time>2021-11-19T18:58:51Z</time>
      </trkpt>
      <trkpt lat="45.73777" lon="4.60371">
        <ele>826</ele>
        <time>2021-11-19T18:59:00Z</time>
      </trkpt>
      <trkpt lat="45.73759" lon="4.60408">
        <ele>822</ele>
        <time>2021-11-19T18:59:07Z</time>
      </trkpt>
      <trkpt lat="45.73705" lon="4.60463">
        <ele>821</ele>
        <time>2021-11-19T18:59:23Z</time>
      </trkpt>
      <trkpt lat="45.73684" lon="4.6049">
        <ele>819</ele>
        <time>2021-11-19T18:59:29Z</time>
      </trkpt>
      <trkpt lat="45.73631" lon="4.60543">
        <ele>814</ele>
        <time>2021-11-19T18:59:45Z</time>
      </trkpt>
      <trkpt lat="45.73585" lon="4.6057">
        <ele>813</ele>
        <time>2021-11-19T18:59:56Z</time>
      </trkpt>
      <trkpt lat="45.73561" lon="4.60595">
        <ele>810</ele>
        <time>2021-11-19T19:00:03Z</time>
      </trkpt>
      <trkpt lat="45.73505" lon="4.60613">
        <ele>806</ele>
        <time>2021-11-19T19:00:16Z</time>
      </trkpt>
      <trkpt lat="45.73464" lon="4.60641">
        <ele>799</ele>
        <time>2021-11-19T19:00:27Z</time>
      </trkpt>
      <trkpt lat="45.7342" lon="4.60661">
        <ele>793</ele>
        <time>2021-11-19T19:00:38Z</time>
      </trkpt>
      <trkpt lat="45.73393" lon="4.60658">
        <ele>789</ele>
        <time>2021-11-19T19:00:44Z</time>
      </trkpt>
      <trkpt lat="45.73354" lon="4.60634">
        <ele>788</ele>
        <time>2021-11-19T19:00:54Z</time>
      </trkpt>
      <trkpt lat="45.73264" lon="4.60601">
        <ele>774</ele>
        <time>2021-11-19T19:01:16Z</time>
      </trkpt>
      <trkpt lat="45.73225" lon="4.60581">
        <ele>770</ele>
        <time>2021-11-19T19:01:25Z</time>
      </trkpt>
      <trkpt lat="45.73192" lon="4.60572">
        <ele>764</ele>
        <time>2021-11-19T19:01:33Z</time>
      </trkpt>
      <trkpt lat="45.73151" lon="4.60569">
        <ele>757</ele>
        <time>2021-11-19T19:01:43Z</time>
      </trkpt>
      <trkpt lat="45.73105" lon="4.60569">
        <ele>753</ele>
        <time>2021-11-19T19:01:54Z</time>
      </trkpt>
      <trkpt lat="45.73087" lon="4.60557">
        <ele>752</ele>
        <time>2021-11-19T19:01:58Z</time>
      </trkpt>
      <trkpt lat="45.73066" lon="4.60525">
        <ele>756</ele>
        <time>2021-11-19T19:02:05Z</time>
      </trkpt>
      <trkpt lat="45.73048" lon="4.60513">
        <ele>759</ele>
        <time>2021-11-19T19:02:10Z</time>
      </trkpt>
      <trkpt lat="45.73029" lon="4.60526">
        <ele>760</ele>
        <time>2021-11-19T19:02:15Z</time>
      </trkpt>
      <trkpt lat="45.73001" lon="4.6058">
        <ele>760</ele>
        <time>2021-11-19T19:02:26Z</time>
      </trkpt>
      <trkpt lat="45.73031" lon="4.60705">
        <ele>751</ele>
        <time>2021-11-19T19:02:48Z</time>
      </trkpt>
      <trkpt lat="45.73053" lon="4.60769">
        <ele>746</ele>
        <time>2021-11-19T19:02:59Z</time>
      </trkpt>
      <trkpt lat="45.73002" lon="4.60875">
        <ele>760</ele>
        <time>2021-11-19T19:03:20Z</time>
      </trkpt>
      <trkpt lat="45.72959" lon="4.60892">
        <ele>757</ele>
        <time>2021-11-19T19:03:31Z</time>
      </trkpt>
      <trkpt lat="45.72929" lon="4.60873">
        <ele>760</ele>
        <time>2021-11-19T19:03:38Z</time>
      </trkpt>
      <trkpt lat="45.72902" lon="4.60833">
        <ele>764</ele>
        <time>2021-11-19T19:03:47Z</time>
      </trkpt>
      <trkpt lat="45.72877" lon="4.60812">
        <ele>760</ele>
        <time>2021-11-19T19:03:54Z</time>
      </trkpt>
      <trkpt lat="45.72823" lon="4.60787">
        <ele>755</ele>
        <time>2021-11-19T19:04:07Z</time>
      </trkpt>
      <trkpt lat="45.72795" lon="4.60786">
        <ele>753</ele>
        <time>2021-11-19T19:04:14Z</time>
      </trkpt>
      <trkpt lat="45.72682" lon="4.6082">
        <ele>743</ele>
        <time>2021-11-19T19:04:41Z</time>
      </trkpt>
      <trkpt lat="45.72655" lon="4.60854">
        <ele>736</ele>
        <time>2021-11-19T19:04:49Z</time>
      </trkpt>
      <trkpt lat="45.72595" lon="4.60894">
        <ele>725</ele>
        <time>2021-11-19T19:05:05Z</time>
      </trkpt>
      <trkpt lat="45.72533" lon="4.60967">
        <ele>705</ele>
        <time>2021-11-19T19:05:23Z</time>
      </trkpt>
      <trkpt lat="45.72522" lon="4.60995">
        <ele>702</ele>
        <time>2021-11-19T19:05:29Z</time>
      </trkpt>
      <trkpt lat="45.72508" lon="4.61084">
        <ele>697</ele>
        <time>2021-11-19T19:05:44Z</time>
      </trkpt>
      <trkpt lat="45.72498" lon="4.61129">
        <ele>691</ele>
        <time>2021-11-19T19:05:51Z</time>
      </trkpt>
      <trkpt lat="45.72496" lon="4.61179">
        <ele>687</ele>
        <time>2021-11-19T19:05:59Z</time>
      </trkpt>
      <trkpt lat="45.72489" lon="4.61203">
        <ele>683</ele>
        <time>2021-11-19T19:06:04Z</time>
      </trkpt>
      <trkpt lat="45.72465" lon="4.61237">
        <ele>677</ele>
        <time>2021-11-19T19:06:12Z</time>
      </trkpt>
      <trkpt lat="45.72418" lon="4.61289">
        <ele>672</ele>
        <time>2021-11-19T19:06:25Z</time>
      </trkpt>
      <trkpt lat="45.72429" lon="4.6125">
        <ele>673</ele>
        <time>2021-11-19T19:06:32Z</time>
      </trkpt>
      <trkpt lat="45.72447" lon="4.61102">
        <ele>675</ele>
        <time>2021-11-19T19:06:57Z</time>
      </trkpt>
      <trkpt lat="45.72444" lon="4.61063">
        <ele>674</ele>
        <time>2021-11-19T19:07:03Z</time>
      </trkpt>
      <trkpt lat="45.72452" lon="4.60991">
        <ele>675</ele>
        <time>2021-11-19T19:07:15Z</time>
      </trkpt>
      <trkpt lat="45.72457" lon="4.60898">
        <ele>675</ele>
        <time>2021-11-19T19:07:30Z</time>
      </trkpt>
      <trkpt lat="45.72475" lon="4.60755">
        <ele>688</ele>
        <time>2021-11-19T19:07:54Z</time>
      </trkpt>
      <trkpt lat="45.72472" lon="4.60714">
        <ele>696</ele>
        <time>2021-11-19T19:08:01Z</time>
      </trkpt>
      <trkpt lat="45.72455" lon="4.60711">
        <ele>695</ele>
        <time>2021-11-19T19:08:05Z</time>
      </trkpt>
      <trkpt lat="45.72422" lon="4.60719">
        <ele>689</ele>
        <time>2021-11-19T19:08:12Z</time>
      </trkpt>
      <trkpt lat="45.72337" lon="4.60729">
        <ele>682</ele>
        <time>2021-11-19T19:08:32Z</time>
      </trkpt>
      <trkpt lat="45.72296" lon="4.60709">
        <ele>681</ele>
        <time>2021-11-19T19:08:42Z</time>
      </trkpt>
      <trkpt lat="45.72186" lon="4.60621">
        <ele>681</ele>
        <time>2021-11-19T19:09:12Z</time>
      </trkpt>
      <trkpt lat="45.72165" lon="4.60592">
        <ele>679</ele>
        <time>2021-11-19T19:09:19Z</time>
      </trkpt>
      <trkpt lat="45.72155" lon="4.60561">
        <ele>680</ele>
        <time>2021-11-19T19:09:24Z</time>
      </trkpt>
      <trkpt lat="45.7213" lon="4.60444">
        <ele>680</ele>
        <time>2021-11-19T19:09:44Z</time>
      </trkpt>
      <trkpt lat="45.72111" lon="4.60409">
        <ele>675</ele>
        <time>2021-11-19T19:09:51Z</time>
      </trkpt>
      <trkpt lat="45.72106" lon="4.60395">
        <ele>673</ele>
        <time>2021-11-19T19:09:54Z</time>
      </trkpt>
      <trkpt lat="45.72123" lon="4.60288">
        <ele>681</ele>
        <time>2021-11-19T19:10:12Z</time>
      </trkpt>
      <trkpt lat="45.72123" lon="4.60256">
        <ele>683</ele>
        <time>2021-11-19T19:10:17Z</time>
      </trkpt>
      <trkpt lat="45.72094" lon="4.60195">
        <ele>684</ele>
        <time>2021-11-19T19:10:29Z</time>
      </trkpt>
      <trkpt lat="45.72082" lon="4.60136">
        <ele>694</ele>
        <time>2021-11-19T19:10:39Z</time>
      </trkpt>
      <trkpt lat="45.72073" lon="4.6012">
        <ele>698</ele>
        <time>2021-11-19T19:10:43Z</time>
      </trkpt>
      <trkpt lat="45.72034" lon="4.60117">
        <ele>694</ele>
        <time>2021-11-19T19:10:52Z</time>
      </trkpt>
      <trkpt lat="45.7196" lon="4.60121">
        <ele>683</ele>
        <time>2021-11-19T19:11:09Z</time>
      </trkpt>
      <trkpt lat="45.71924" lon="4.60112">
        <ele>680</ele>
        <time>2021-11-19T19:11:17Z</time>
      </trkpt>
      <trkpt lat="45.71904" lon="4.60078">
        <ele>681</ele>
        <time>2021-11-19T19:11:25Z</time>
      </trkpt>
      <trkpt lat="45.71894" lon="4.60036">
        <ele>680</ele>
        <time>2021-11-19T19:11:32Z</time>
      </trkpt>
      <trkpt lat="45.71888" lon="4.59912">
        <ele>681</ele>
        <time>2021-11-19T19:11:52Z</time>
      </trkpt>
      <trkpt lat="45.71909" lon="4.59796">
        <ele>687</ele>
        <time>2021-11-19T19:12:12Z</time>
      </trkpt>
      <trkpt lat="45.71906" lon="4.59753">
        <ele>686</ele>
        <time>2021-11-19T19:12:19Z</time>
      </trkpt>
      <trkpt lat="45.719" lon="4.59715">
        <ele>688</ele>
        <time>2021-11-19T19:12:25Z</time>
      </trkpt>
      <trkpt lat="45.71882" lon="4.59668">
        <ele>690</ele>
        <time>2021-11-19T19:12:34Z</time>
      </trkpt>
      <trkpt lat="45.71865" lon="4.5966">
        <ele>690</ele>
        <time>2021-11-19T19:12:38Z</time>
      </trkpt>
      <trkpt lat="45.71844" lon="4.59658">
        <ele>689</ele>
        <time>2021-11-19T19:12:43Z</time>
      </trkpt>
      <trkpt lat="45.71798" lon="4.59673">
        <ele>693</ele>
        <time>2021-11-19T19:12:54Z</time>
      </trkpt>
      <trkpt lat="45.71744" lon="4.59702">
        <ele>696</ele>
        <time>2021-11-19T19:13:07Z</time>
      </trkpt>
      <trkpt lat="45.71704" lon="4.59713">
        <ele>697</ele>
        <time>2021-11-19T19:13:17Z</time>
      </trkpt>
      <trkpt lat="45.71538" lon="4.5981">
        <ele>681</ele>
        <time>2021-11-19T19:13:59Z</time>
      </trkpt>
      <trkpt lat="45.71517" lon="4.59806">
        <ele>681</ele>
        <time>2021-11-19T19:14:04Z</time>
      </trkpt>
      <trkpt lat="45.71491" lon="4.59778">
        <ele>683</ele>
        <time>2021-11-19T19:14:11Z</time>
      </trkpt>
      <trkpt lat="45.71472" lon="4.59744">
        <ele>685</ele>
        <time>2021-11-19T19:14:19Z</time>
      </trkpt>
      <trkpt lat="45.71457" lon="4.59728">
        <ele>684</ele>
        <time>2021-11-19T19:14:23Z</time>
      </trkpt>
      <trkpt lat="45.71435" lon="4.59691">
        <ele>683</ele>
        <time>2021-11-19T19:14:31Z</time>
      </trkpt>
      <trkpt lat="45.7142" lon="4.59645">
        <ele>682</ele>
        <time>2021-11-19T19:14:39Z</time>
      </trkpt>
      <trkpt lat="45.71412" lon="4.59595">
        <ele>680</ele>
        <time>2021-11-19T19:14:47Z</time>
      </trkpt>
      <trkpt lat="45.71421" lon="4.59489">
        <ele>686</ele>
        <time>2021-11-19T19:15:05Z</time>
      </trkpt>
      <trkpt lat="45.71413" lon="4.59307">
        <ele>685</ele>
        <time>2021-11-19T19:15:35Z</time>
      </trkpt>
      <trkpt lat="45.71423" lon="4.59236">
        <ele>690</ele>
        <time>2021-11-19T19:15:46Z</time>
      </trkpt>
      <trkpt lat="45.71422" lon="4.59199">
        <ele>692</ele>
        <time>2021-11-19T19:15:52Z</time>
      </trkpt>
      <trkpt lat="45.71417" lon="4.59182">
        <ele>691</ele>
        <time>2021-11-19T19:15:55Z</time>
      </trkpt>
      <trkpt lat="45.71378" lon="4.59152">
        <ele>691</ele>
        <time>2021-11-19T19:16:06Z</time>
      </trkpt>
      <trkpt lat="45.71362" lon="4.59127">
        <ele>698</ele>
        <time>2021-11-19T19:16:11Z</time>
      </trkpt>
      <trkpt lat="45.71333" lon="4.59118">
        <ele>699</ele>
        <time>2021-11-19T19:16:18Z</time>
      </trkpt>
      <trkpt lat="45.71306" lon="4.59123">
        <ele>700</ele>
        <time>2021-11-19T19:16:25Z</time>
      </trkpt>
      <trkpt lat="45.71286" lon="4.59133">
        <ele>698</ele>
        <time>2021-11-19T19:16:30Z</time>
      </trkpt>
      <trkpt lat="45.71251" lon="4.59143">
        <ele>698</ele>
        <time>2021-11-19T19:16:38Z</time>
      </trkpt>
      <trkpt lat="45.71163" lon="4.59191">
        <ele>699</ele>
        <time>2021-11-19T19:17:00Z</time>
      </trkpt>
      <trkpt lat="45.71142" lon="4.59213">
        <ele>689</ele>
        <time>2021-11-19T19:17:06Z</time>
      </trkpt>
      <trkpt lat="45.7112" lon="4.59244">
        <ele>677</ele>
        <time>2021-11-19T19:17:13Z</time>
      </trkpt>
      <trkpt lat="45.71097" lon="4.59244">
        <ele>674</ele>
        <time>2021-11-19T19:17:19Z</time>
      </trkpt>
      <trkpt lat="45.71073" lon="4.59188">
        <ele>685</ele>
        <time>2021-11-19T19:17:29Z</time>
      </trkpt>
      <trkpt lat="45.71024" lon="4.59153">
        <ele>684</ele>
        <time>2021-11-19T19:17:42Z</time>
      </trkpt>
      <trkpt lat="45.71011" lon="4.59147">
        <ele>683</ele>
        <time>2021-11-19T19:17:45Z</time>
      </trkpt>
      <trkpt lat="45.7087" lon="4.58978">
        <ele>702</ele>
        <time>2021-11-19T19:18:28Z</time>
      </trkpt>
      <trkpt lat="45.70822" lon="4.58935">
        <ele>701</ele>
        <time>2021-11-19T19:18:41Z</time>
      </trkpt>
      <trkpt lat="45.70811" lon="4.58917">
        <ele>702</ele>
        <time>2021-11-19T19:18:45Z</time>
      </trkpt>
      <trkpt lat="45.70802" lon="4.58907">
        <ele>703</ele>
        <time>2021-11-19T19:18:48Z</time>
      </trkpt>
      <trkpt lat="45.70792" lon="4.58911">
        <ele>704</ele>
        <time>2021-11-19T19:18:50Z</time>
      </trkpt>
      <trkpt lat="45.70788" lon="4.5892">
        <ele>704</ele>
        <time>2021-11-19T19:18:52Z</time>
      </trkpt>
      <trkpt lat="45.70801" lon="4.58966">
        <ele>704</ele>
        <time>2021-11-19T19:19:00Z</time>
      </trkpt>
      <trkpt lat="45.70821" lon="4.58999">
        <ele>701</ele>
        <time>2021-11-19T19:19:07Z</time>
      </trkpt>
      <trkpt lat="45.70825" lon="4.59023">
        <ele>702</ele>
        <time>2021-11-19T19:19:11Z</time>
      </trkpt>
      <trkpt lat="45.70803" lon="4.59033">
        <ele>706</ele>
        <time>2021-11-19T19:19:17Z</time>
      </trkpt>
      <trkpt lat="45.70788" lon="4.59033">
        <ele>708</ele>
        <time>2021-11-19T19:19:20Z</time>
      </trkpt>
    </trkseg>
  </trk>
</gpx>